createdAt,value
2018-09-26T00:00:33.328Z,99.90
2018-09-26T00:03:03.688Z,99.90
2018-09-26T00:05:31.114Z,99.90
2018-09-26T00:07:58.534Z,99.90
2018-09-26T00:10:25.950Z,99.90
2018-09-26T00:12:53.345Z,99.90
2018-09-26T00:15:20.745Z,99.90
2018-09-26T00:17:48.138Z,99.90
2018-09-26T00:20:15.545Z,99.90
2018-09-26T00:22:43.026Z,99.90
2018-09-26T00:25:10.433Z,99.90
2018-09-26T00:27:37.825Z,99.90
2018-09-26T00:30:05.234Z,99.90
2018-09-26T00:32:32.633Z,99.90
2018-09-26T00:35:00.033Z,99.90
2018-09-26T00:37:27.824Z,99.90
2018-09-26T00:39:55.217Z,99.90
2018-09-26T00:42:22.589Z,99.90
2018-09-26T00:44:49.999Z,99.90
2018-09-26T00:47:17.383Z,99.90
2018-09-26T00:49:44.821Z,99.90
2018-09-26T00:52:12.217Z,99.90
2018-09-26T00:54:39.629Z,99.90
2018-09-26T00:57:07.055Z,99.90
2018-09-26T00:59:34.461Z,99.90
2018-09-26T01:02:01.866Z,99.90
2018-09-26T01:04:29.298Z,99.90
2018-09-26T01:06:56.673Z,99.90
2018-09-26T01:09:24.060Z,99.90
2018-09-26T01:11:51.457Z,99.90
2018-09-26T01:14:18.852Z,99.90
2018-09-26T01:16:46.249Z,99.90
2018-09-26T01:19:13.649Z,99.90
2018-09-26T01:21:41.052Z,99.90
2018-09-26T01:24:08.510Z,99.90
2018-09-26T01:26:35.952Z,99.90
2018-09-26T01:29:03.334Z,99.90
2018-09-26T01:31:30.745Z,99.90
2018-09-26T01:33:58.142Z,99.90
2018-09-26T01:36:25.553Z,99.90
2018-09-26T01:38:52.948Z,99.90
2018-09-26T01:41:20.353Z,99.90
2018-09-26T01:43:47.748Z,99.90
2018-09-26T01:46:15.184Z,99.90
2018-09-26T01:48:42.597Z,99.90
2018-09-26T01:51:10.001Z,99.90
2018-09-26T01:53:37.722Z,99.90
2018-09-26T01:56:05.138Z,99.90
2018-09-26T01:58:32.517Z,99.90
2018-09-26T02:00:59.926Z,99.90
2018-09-26T02:03:27.380Z,99.90
2018-09-26T02:05:54.789Z,99.90
2018-09-26T02:08:22.217Z,99.90
2018-09-26T02:10:49.625Z,99.90
2018-09-26T02:13:17.109Z,99.90
2018-09-26T02:15:44.509Z,99.90
2018-09-26T02:18:11.918Z,99.90
2018-09-26T02:20:39.306Z,99.90
2018-09-26T02:23:06.710Z,99.90
2018-09-26T02:25:34.118Z,99.90
2018-09-26T02:28:01.518Z,99.90
2018-09-26T02:30:28.958Z,99.90
2018-09-26T02:32:56.530Z,99.90
2018-09-26T02:35:23.937Z,99.90
2018-09-26T02:37:51.342Z,99.90
2018-09-26T02:40:18.784Z,99.90
2018-09-26T02:42:46.203Z,99.90
2018-09-26T02:45:13.605Z,99.90
2018-09-26T02:47:41.005Z,99.90
2018-09-26T02:50:08.622Z,99.90
2018-09-26T02:52:36.013Z,99.90
2018-09-26T02:55:03.564Z,99.90
2018-09-26T02:57:30.965Z,99.90
2018-09-26T02:59:58.386Z,99.90
2018-09-26T03:02:25.810Z,99.90
2018-09-26T03:04:53.206Z,99.90
2018-09-26T03:07:20.594Z,99.90
2018-09-26T03:09:48.025Z,99.90
2018-09-26T03:12:15.440Z,99.90
2018-09-26T03:14:42.845Z,99.90
2018-09-26T03:17:10.241Z,99.90
2018-09-26T03:19:37.638Z,99.90
2018-09-26T03:22:05.049Z,99.90
2018-09-26T03:24:32.452Z,99.90
2018-09-26T03:26:59.858Z,99.90
2018-09-26T03:29:27.317Z,99.90
2018-09-26T03:31:54.721Z,99.90
2018-09-26T03:34:22.131Z,99.90
2018-09-26T03:36:49.538Z,99.90
2018-09-26T03:39:16.969Z,99.90
2018-09-26T03:41:44.398Z,99.90
2018-09-26T03:44:11.818Z,99.90
2018-09-26T03:46:39.206Z,99.90
2018-09-26T03:49:06.617Z,99.90
2018-09-26T03:51:33.990Z,99.90
2018-09-26T03:54:01.417Z,99.90
2018-09-26T03:56:28.824Z,99.90
2018-09-26T03:58:56.237Z,99.90
2018-09-26T04:01:23.641Z,99.90
2018-09-26T04:03:51.046Z,99.90
2018-09-26T04:06:18.449Z,99.90
2018-09-26T04:08:45.855Z,99.90
2018-09-26T04:11:13.255Z,99.90
2018-09-26T04:13:40.695Z,99.90
2018-09-26T04:16:08.113Z,99.90
2018-09-26T04:18:35.523Z,99.90
2018-09-26T04:21:02.938Z,99.90
2018-09-26T04:23:30.353Z,99.90
2018-09-26T04:25:57.742Z,99.90
2018-09-26T04:28:25.165Z,99.90
2018-09-26T04:30:52.567Z,99.90
2018-09-26T04:33:20.139Z,99.90
2018-09-26T04:35:47.410Z,99.90
2018-09-26T04:38:14.833Z,99.90
2018-09-26T04:40:42.252Z,99.90
2018-09-26T04:43:09.668Z,99.90
2018-09-26T04:45:37.072Z,99.90
2018-09-26T04:48:04.858Z,99.90
2018-09-26T04:50:32.268Z,99.90
2018-09-26T04:52:59.869Z,99.90
2018-09-26T04:55:27.301Z,99.90
2018-09-26T04:57:54.764Z,99.90
2018-09-26T05:00:22.113Z,99.90
2018-09-26T05:02:49.502Z,99.90
2018-09-26T05:05:16.896Z,99.90
2018-09-26T05:07:44.297Z,99.90
2018-09-26T05:10:11.687Z,99.90
2018-09-26T05:12:39.081Z,99.90
2018-09-26T05:15:06.478Z,99.90
2018-09-26T05:17:33.889Z,99.90
2018-09-26T05:20:01.306Z,99.90
2018-09-26T05:22:28.713Z,99.90
2018-09-26T05:24:56.145Z,99.90
2018-09-26T05:27:23.537Z,99.90
2018-09-26T05:29:50.945Z,99.90
2018-09-26T05:32:18.356Z,99.90
2018-09-26T05:34:45.751Z,99.90
2018-09-26T05:37:13.641Z,99.90
2018-09-26T05:39:41.105Z,99.90
2018-09-26T05:42:08.517Z,99.90
2018-09-26T05:44:35.912Z,99.90
2018-09-26T05:47:03.293Z,99.90
2018-09-26T05:49:30.677Z,99.90
2018-09-26T05:51:58.081Z,99.90
2018-09-26T05:54:25.482Z,99.90
2018-09-26T05:56:52.897Z,99.90
2018-09-26T05:59:20.286Z,99.90
2018-09-26T06:01:47.677Z,99.90
2018-09-26T06:04:15.083Z,99.90
2018-09-26T06:06:42.637Z,99.90
2018-09-26T06:09:12.132Z,99.90
2018-09-26T06:11:39.585Z,99.90
2018-09-26T06:14:06.990Z,99.90
2018-09-26T06:16:34.386Z,99.90
2018-09-26T06:19:01.845Z,99.90
2018-09-26T06:21:29.185Z,99.90
2018-09-26T06:23:56.582Z,99.90
2018-09-26T06:26:23.985Z,99.90
2018-09-26T06:28:51.384Z,99.90
2018-09-26T06:31:18.817Z,99.90
2018-09-26T06:33:46.213Z,99.90
2018-09-26T06:36:13.614Z,99.90
2018-09-26T06:38:41.009Z,99.90
2018-09-26T06:41:08.437Z,99.90
2018-09-26T06:43:35.834Z,99.90
2018-09-26T06:46:03.265Z,99.90
2018-09-26T06:48:30.680Z,99.90
2018-09-26T06:50:58.243Z,99.90
2018-09-26T06:53:25.625Z,99.90
2018-09-26T06:55:53.121Z,99.90
2018-09-26T06:58:20.513Z,99.90
2018-09-26T07:00:47.926Z,99.90
2018-09-26T07:03:15.318Z,99.90
2018-09-26T07:05:42.737Z,99.90
2018-09-26T07:08:10.127Z,99.90
2018-09-26T07:10:37.530Z,99.90
2018-09-26T07:13:04.913Z,99.90
2018-09-26T07:15:32.308Z,99.90
2018-09-26T07:17:59.721Z,99.90
2018-09-26T07:20:27.105Z,99.90
2018-09-26T07:22:54.505Z,99.90
2018-09-26T07:25:21.889Z,99.90
2018-09-26T07:27:49.269Z,99.90
2018-09-26T07:30:16.706Z,99.90
2018-09-26T07:32:44.102Z,99.90
2018-09-26T07:35:11.498Z,99.90
2018-09-26T07:37:38.905Z,99.90
2018-09-26T07:40:06.307Z,99.90
2018-09-26T07:42:33.733Z,99.90
2018-09-26T07:45:01.135Z,99.90
2018-09-26T07:47:28.574Z,99.90
2018-09-26T07:49:55.969Z,99.90
2018-09-26T07:52:23.401Z,99.90
2018-09-26T07:54:50.786Z,99.90
2018-09-26T07:57:18.195Z,99.90
2018-09-26T07:59:45.636Z,99.90
2018-09-26T08:02:13.124Z,99.90
2018-09-26T08:04:40.540Z,99.90
2018-09-26T08:07:07.962Z,99.90
2018-09-26T08:09:35.362Z,99.90
2018-09-26T08:12:02.782Z,99.90
2018-09-26T08:14:30.161Z,99.90
2018-09-26T08:16:57.550Z,99.90
2018-09-26T08:19:24.961Z,99.90
2018-09-26T08:21:52.398Z,99.90
2018-09-26T08:24:19.868Z,99.90
2018-09-26T08:26:47.229Z,99.90
2018-09-26T08:29:14.631Z,99.90
2018-09-26T08:31:42.050Z,99.90
2018-09-26T08:34:09.497Z,99.90
2018-09-26T08:36:36.873Z,99.90
2018-09-26T08:39:06.613Z,99.90
2018-09-26T08:41:34.042Z,99.90
2018-09-26T08:44:01.458Z,99.90
2018-09-26T08:46:28.849Z,99.90
2018-09-26T08:48:56.245Z,99.90
2018-09-26T08:51:23.646Z,99.90
2018-09-26T08:53:51.107Z,99.90
2018-09-26T08:56:18.449Z,99.90
2018-09-26T08:58:45.884Z,99.90
2018-09-26T09:01:18.798Z,99.90
2018-09-26T09:03:46.202Z,99.90
2018-09-26T09:06:13.660Z,99.90
2018-09-26T09:08:41.033Z,99.90
2018-09-26T09:11:08.456Z,99.90
2018-09-26T09:13:35.882Z,99.90
2018-09-26T09:16:03.282Z,99.90
2018-09-26T09:18:30.677Z,99.90
2018-09-26T09:20:58.089Z,99.90
2018-09-26T09:23:25.517Z,99.90
2018-09-26T09:25:52.943Z,99.90
2018-09-26T09:28:20.377Z,99.90
2018-09-26T09:30:47.794Z,99.90
2018-09-26T09:33:15.434Z,99.90
2018-09-26T09:35:42.823Z,99.90
2018-09-26T09:38:10.266Z,99.90
2018-09-26T09:40:37.647Z,99.90
2018-09-26T09:43:05.082Z,99.90
2018-09-26T09:45:32.533Z,99.90
2018-09-26T09:47:59.958Z,99.90
2018-09-26T09:50:27.402Z,99.90
2018-09-26T09:52:54.806Z,99.90
2018-09-26T09:55:22.201Z,99.90
2018-09-26T09:57:49.624Z,99.90
2018-09-26T10:00:17.012Z,99.90
2018-09-26T10:02:44.492Z,99.90
2018-09-26T10:05:11.833Z,99.90
2018-09-26T10:07:39.228Z,99.70
2018-09-26T10:10:06.682Z,98.70
2018-09-26T10:12:34.109Z,99.30
2018-09-26T10:15:01.523Z,99.90
2018-09-26T10:17:28.969Z,99.40
2018-09-26T10:19:56.389Z,98.90
2018-09-26T10:22:23.821Z,99.80
2018-09-26T10:24:51.266Z,99.90
2018-09-26T10:27:18.665Z,99.00
2018-09-26T10:29:46.072Z,98.60
2018-09-26T10:32:13.532Z,97.50
2018-09-26T10:34:40.916Z,97.90
2018-09-26T10:37:08.345Z,96.20
2018-09-26T10:39:35.765Z,97.80
2018-09-26T10:42:03.217Z,97.70
2018-09-26T10:44:30.628Z,98.00
2018-09-26T10:46:58.047Z,97.40
2018-09-26T10:49:25.624Z,95.90
2018-09-26T10:51:53.028Z,96.00
2018-09-26T10:54:20.434Z,98.00
2018-09-26T10:56:47.985Z,96.10
2018-09-26T10:59:15.248Z,95.40
2018-09-26T11:01:42.647Z,92.70
2018-09-26T11:04:10.066Z,93.80
2018-09-26T11:06:37.461Z,91.80
2018-09-26T11:09:05.890Z,91.10
2018-09-26T11:11:33.301Z,86.20
2018-09-26T11:14:00.705Z,86.60
2018-09-26T11:16:28.199Z,85.60
2018-09-26T11:18:55.628Z,82.90
2018-09-26T11:21:23.015Z,79.30
2018-09-26T11:23:50.386Z,79.50
2018-09-26T11:26:17.861Z,79.10
2018-09-26T11:28:45.191Z,76.30
2018-09-26T11:31:12.617Z,71.60
2018-09-26T11:33:40.071Z,70.90
2018-09-26T11:36:07.442Z,72.00
2018-09-26T11:38:34.841Z,68.30
2018-09-26T11:41:02.279Z,70.20
2018-09-26T11:43:29.717Z,68.70
2018-09-26T11:45:57.141Z,68.60
2018-09-26T11:48:24.569Z,63.50
2018-09-26T11:50:51.983Z,64.00
2018-09-26T11:53:19.373Z,63.90
2018-09-26T11:55:46.806Z,63.70
2018-09-26T11:58:14.245Z,62.70
2018-09-26T12:00:41.717Z,59.70
2018-09-26T12:03:09.105Z,58.10
2018-09-26T12:05:36.518Z,60.40
2018-09-26T12:08:03.929Z,61.60
2018-09-26T12:10:31.329Z,58.80
2018-09-26T12:12:58.737Z,61.50
2018-09-26T12:15:26.145Z,59.10
2018-09-26T12:17:53.553Z,59.10
2018-09-26T12:20:20.949Z,57.30
2018-09-26T12:22:48.356Z,57.60
2018-09-26T12:25:15.773Z,58.60
2018-09-26T12:27:43.158Z,56.30
2018-09-26T12:30:10.556Z,54.20
2018-09-26T12:32:38.349Z,53.60
2018-09-26T12:35:05.779Z,55.60
2018-09-26T12:37:33.174Z,56.10
2018-09-26T12:40:00.609Z,56.90
2018-09-26T12:42:28.017Z,55.00
2018-09-26T12:44:55.468Z,54.20
2018-09-26T12:47:23.510Z,54.60
2018-09-26T12:49:50.801Z,51.60
2018-09-26T12:52:18.258Z,53.90
2018-09-26T12:54:45.600Z,51.90
2018-09-26T12:57:13.001Z,51.30
2018-09-26T12:59:40.428Z,51.80
2018-09-26T13:02:07.853Z,50.70
2018-09-26T13:04:35.291Z,50.50
2018-09-26T13:07:02.686Z,51.30
2018-09-26T13:09:30.095Z,50.30
2018-09-26T13:11:57.498Z,49.30
2018-09-26T13:14:24.967Z,49.40
2018-09-26T13:16:52.301Z,50.00
2018-09-26T13:19:19.725Z,48.90
2018-09-26T13:21:47.121Z,49.40
2018-09-26T13:24:14.578Z,51.20
2018-09-26T13:26:41.937Z,48.90
2018-09-26T13:29:09.324Z,49.50
2018-09-26T13:31:36.736Z,48.90
2018-09-26T13:34:04.203Z,49.70
2018-09-26T13:36:31.525Z,47.70
2018-09-26T13:38:58.976Z,47.50
2018-09-26T13:41:26.330Z,48.10
2018-09-26T13:43:53.746Z,46.80
2018-09-26T13:46:21.293Z,47.40
2018-09-26T13:48:48.582Z,47.90
2018-09-26T13:51:15.972Z,49.80
2018-09-26T13:53:43.379Z,49.90
2018-09-26T13:56:10.795Z,49.60
2018-09-26T13:58:38.189Z,49.20
2018-09-26T14:01:05.795Z,49.40
2018-09-26T14:03:33.193Z,50.70
2018-09-26T14:06:00.617Z,50.50
2018-09-26T14:08:28.109Z,50.30
2018-09-26T14:10:55.453Z,50.10
2018-09-26T14:13:22.841Z,49.80
2018-09-26T14:15:50.249Z,51.00
2018-09-26T14:18:17.676Z,52.10
2018-09-26T14:20:57.411Z,54.70
2018-09-26T14:23:24.888Z,53.20
2018-09-26T14:25:52.274Z,53.00
2018-09-26T14:28:19.769Z,51.50
2018-09-26T14:30:47.335Z,53.40
2018-09-26T14:33:14.680Z,54.00
2018-09-26T14:35:42.085Z,52.70
2018-09-26T14:38:09.596Z,52.30
2018-09-26T14:40:36.965Z,52.50
2018-09-26T14:43:04.414Z,52.80
2018-09-26T14:45:31.878Z,55.30
2018-09-26T14:47:59.302Z,55.10
2018-09-26T14:50:26.901Z,55.40
2018-09-26T14:52:54.240Z,55.00
2018-09-26T14:55:21.722Z,55.80
2018-09-26T14:57:49.083Z,57.30
2018-09-26T15:00:16.513Z,56.10
2018-09-26T15:02:43.937Z,57.60
2018-09-26T15:05:11.385Z,56.50
2018-09-26T15:07:38.962Z,57.70
2018-09-26T15:10:07.072Z,56.40
2018-09-26T15:12:34.478Z,56.50
2018-09-26T15:15:01.929Z,56.10
2018-09-26T15:17:29.362Z,55.30
2018-09-26T15:19:56.799Z,55.40
2018-09-26T15:22:24.229Z,54.60
2018-09-26T15:24:51.658Z,54.70
2018-09-26T15:27:19.098Z,54.10
2018-09-26T15:29:46.546Z,54.20
2018-09-26T15:32:14.187Z,55.20
2018-09-26T15:34:41.565Z,55.50
2018-09-26T15:37:09.005Z,54.10
2018-09-26T15:39:36.458Z,53.50
2018-09-26T15:42:03.917Z,52.90
2018-09-26T15:44:31.347Z,53.50
2018-09-26T15:46:58.769Z,53.40
2018-09-26T15:49:26.204Z,53.40
2018-09-26T15:51:53.670Z,54.10
2018-09-26T15:54:21.155Z,53.80
2018-09-26T15:56:48.597Z,55.00
2018-09-26T15:59:16.033Z,55.60
2018-09-26T16:01:43.493Z,55.10
2018-09-26T16:04:22.379Z,56.10
2018-09-26T16:06:49.693Z,56.60
2018-09-26T16:09:17.106Z,56.30
2018-09-26T16:11:44.510Z,57.80
2018-09-26T16:14:11.913Z,58.60
2018-09-26T16:16:39.302Z,57.80
2018-09-26T16:19:06.695Z,57.30
2018-09-26T16:21:34.093Z,57.20
2018-09-26T16:24:01.481Z,57.10
2018-09-26T16:26:28.962Z,58.30
2018-09-26T16:28:56.365Z,57.60
2018-09-26T16:31:23.790Z,58.70
2018-09-26T16:33:51.148Z,59.10
2018-09-26T16:36:18.611Z,59.70
2018-09-26T16:38:46.170Z,60.70
2018-09-26T16:41:13.604Z,59.80
2018-09-26T16:43:40.976Z,61.10
2018-09-26T16:46:08.395Z,63.50
2018-09-26T16:48:35.792Z,64.10
2018-09-26T16:51:03.198Z,64.80
2018-09-26T16:53:30.677Z,65.30
2018-09-26T16:55:58.400Z,65.30
2018-09-26T16:58:25.892Z,64.10
2018-09-26T17:00:53.209Z,64.50
2018-09-26T17:03:20.609Z,64.80
2018-09-26T17:05:48.015Z,65.70
2018-09-26T17:08:15.414Z,66.10
2018-09-26T17:10:42.812Z,67.40
2018-09-26T17:13:10.213Z,65.20
2018-09-26T17:15:37.622Z,66.20
2018-09-26T17:18:05.020Z,68.40
2018-09-26T17:20:32.435Z,68.80
2018-09-26T17:22:59.868Z,68.50
2018-09-26T17:25:27.285Z,68.80
2018-09-26T17:27:54.714Z,70.20
2018-09-26T17:30:22.158Z,71.40
2018-09-26T17:32:49.561Z,71.70
2018-09-26T17:35:16.959Z,71.60
2018-09-26T17:37:44.400Z,73.40
2018-09-26T17:40:12.162Z,73.20
2018-09-26T17:42:39.489Z,73.20
2018-09-26T17:45:07.697Z,73.40
2018-09-26T17:47:35.152Z,73.10
2018-09-26T17:50:02.575Z,73.30
2018-09-26T17:52:30.018Z,74.10
2018-09-26T17:54:57.470Z,75.20
2018-09-26T17:57:24.873Z,74.80
2018-09-26T17:59:52.289Z,77.60
2018-09-26T18:02:19.709Z,76.10
2018-09-26T18:04:47.114Z,74.30
2018-09-26T18:07:14.603Z,74.60
2018-09-26T18:09:42.001Z,74.70
2018-09-26T18:12:09.437Z,75.70
2018-09-26T18:14:36.906Z,76.30
2018-09-26T18:17:04.398Z,76.70
2018-09-26T18:19:31.885Z,77.60
2018-09-26T18:21:59.296Z,78.30
2018-09-26T18:24:26.865Z,79.10
2018-09-26T18:26:54.326Z,79.90
2018-09-26T18:29:21.725Z,80.10
2018-09-26T18:31:49.221Z,81.60
2018-09-26T18:34:16.637Z,83.60
2018-09-26T18:36:45.032Z,85.20
2018-09-26T18:39:12.432Z,87.40
2018-09-26T18:41:40.141Z,87.30
2018-09-26T18:44:07.529Z,86.80
2018-09-26T18:46:35.087Z,87.50
2018-09-26T18:49:02.553Z,88.80
2018-09-26T18:51:29.989Z,90.00
2018-09-26T18:53:57.402Z,90.80
2018-09-26T18:56:24.866Z,89.80
2018-09-26T18:58:52.300Z,89.80
2018-09-26T19:01:19.678Z,89.50
2018-09-26T19:03:47.124Z,91.10
2018-09-26T19:06:14.722Z,91.70
2018-09-26T19:08:42.161Z,91.60
2018-09-26T19:11:09.557Z,91.80
2018-09-26T19:13:36.977Z,92.20
2018-09-26T19:16:04.415Z,92.70
2018-09-26T19:18:31.838Z,92.80
2018-09-26T19:20:59.350Z,93.30
2018-09-26T19:23:26.754Z,93.60
2018-09-26T19:25:54.153Z,94.00
2018-09-26T19:28:21.567Z,94.30
2018-09-26T19:30:48.961Z,95.30
2018-09-26T19:33:16.371Z,95.20
2018-09-26T19:35:43.784Z,95.60
2018-09-26T19:38:11.178Z,95.50
2018-09-26T19:40:38.635Z,95.90
2018-09-26T19:43:06.032Z,96.10
2018-09-26T19:45:33.450Z,95.60
2018-09-26T19:48:00.866Z,95.40
2018-09-26T19:50:28.286Z,95.90
2018-09-26T19:52:55.699Z,96.80
2018-09-26T19:55:23.238Z,97.10
2018-09-26T19:57:50.878Z,97.20
2018-09-26T20:00:18.277Z,97.80
2018-09-26T20:02:45.678Z,97.90
2018-09-26T20:05:13.121Z,98.00
2018-09-26T20:07:40.534Z,98.30
2018-09-26T20:10:08.229Z,98.20
2018-09-26T20:12:35.621Z,98.20
2018-09-26T20:15:03.025Z,98.80
2018-09-26T20:17:30.415Z,99.10
2018-09-26T20:19:57.835Z,99.30
2018-09-26T20:22:25.250Z,99.50
2018-09-26T20:24:52.785Z,99.70
2018-09-26T20:27:20.367Z,99.90
2018-09-26T20:29:47.828Z,99.90
2018-09-26T20:32:15.016Z,99.90
2018-09-26T20:34:42.405Z,99.90
2018-09-26T20:37:09.871Z,99.90
2018-09-26T20:39:37.289Z,99.90
2018-09-26T20:42:04.759Z,99.90
2018-09-26T20:44:32.161Z,99.90
2018-09-26T20:46:59.577Z,99.90
2018-09-26T20:49:26.992Z,99.90
2018-09-26T20:51:54.520Z,99.90
2018-09-26T20:54:21.862Z,99.90
2018-09-26T20:56:49.337Z,99.90
2018-09-26T20:59:16.853Z,99.90
2018-09-26T21:01:44.494Z,99.90
2018-09-26T21:04:12.029Z,99.90
2018-09-26T21:06:39.474Z,99.90
2018-09-26T21:09:07.646Z,99.90
2018-09-26T21:11:35.081Z,99.90
2018-09-26T21:14:02.509Z,99.90
2018-09-26T21:16:29.942Z,99.90
2018-09-26T21:18:57.358Z,99.90
2018-09-26T21:21:25.054Z,99.90
2018-09-26T21:23:52.515Z,99.90
2018-09-26T21:26:19.977Z,99.90
2018-09-26T21:28:47.382Z,99.90
2018-09-26T21:31:14.848Z,99.90
2018-09-26T21:33:42.255Z,99.90
2018-09-26T21:36:09.664Z,99.90
2018-09-26T21:38:37.094Z,99.90
2018-09-26T21:41:04.481Z,99.90
2018-09-26T21:43:31.907Z,99.90
2018-09-26T21:45:59.325Z,99.90
2018-09-26T21:48:26.777Z,99.90
2018-09-26T21:50:54.206Z,99.90
2018-09-26T21:53:21.598Z,99.90
2018-09-26T21:55:49.014Z,99.90
2018-09-26T21:58:16.438Z,99.90
2018-09-26T22:00:49.413Z,99.90
2018-09-26T22:03:16.957Z,99.90
2018-09-26T22:05:44.385Z,99.90
2018-09-26T22:08:11.794Z,99.90
2018-09-26T22:10:39.177Z,99.90
2018-09-26T22:13:06.577Z,99.90
2018-09-26T22:15:33.961Z,99.90
2018-09-26T22:18:01.362Z,99.90
2018-09-26T22:20:28.773Z,99.90
2018-09-26T22:22:56.180Z,99.90
2018-09-26T22:25:23.582Z,99.90
2018-09-26T22:27:50.993Z,99.90
2018-09-26T22:30:18.396Z,99.90
2018-09-26T22:32:45.801Z,99.90
2018-09-26T22:35:13.204Z,99.90
2018-09-26T22:37:40.613Z,99.90
2018-09-26T22:40:07.986Z,99.90
2018-09-26T22:42:35.405Z,99.90
2018-09-26T22:45:02.806Z,99.90
2018-09-26T22:47:30.208Z,99.90
2018-09-26T22:49:57.623Z,99.90
2018-09-26T22:52:25.022Z,99.90
2018-09-26T22:54:52.406Z,99.90
2018-09-26T22:57:19.813Z,99.90
2018-09-26T22:59:47.222Z,99.90
2018-09-26T23:02:14.618Z,99.90
2018-09-26T23:04:42.049Z,99.90
2018-09-26T23:07:09.462Z,99.90
2018-09-26T23:09:37.872Z,99.90
2018-09-26T23:12:05.266Z,99.90
2018-09-26T23:14:32.663Z,99.90
2018-09-26T23:17:00.221Z,99.90
2018-09-26T23:19:27.609Z,99.90
2018-09-26T23:21:55.010Z,99.90
2018-09-26T23:24:22.405Z,99.90
2018-09-26T23:26:49.934Z,99.90
2018-09-26T23:29:17.325Z,99.90
2018-09-26T23:31:44.741Z,99.90
2018-09-26T23:34:12.141Z,99.90
2018-09-26T23:36:39.547Z,99.90
2018-09-26T23:39:07.645Z,99.90
2018-09-26T23:41:35.166Z,99.90
2018-09-26T23:44:02.567Z,99.90
2018-09-26T23:46:29.957Z,99.90
2018-09-26T23:48:57.377Z,99.90
2018-09-26T23:51:24.778Z,99.90
2018-09-26T23:53:52.170Z,99.90
2018-09-26T23:56:19.555Z,99.90
2018-09-26T23:58:46.946Z,99.90
